Terminal Aerodrome Forecast
Issued by NWS

Home | Current Version | Previous Version | Text Only | Print | Product List | Glossary On
Versions: 1 2 3 4 5 6 7 8 9 10 11 12 13 14 15 16 17 18 19 20 21 22 23 24
000
FTUS45 KBOU 291843 AAA
TAFAPA
TAF AMD
KAPA 291843Z 2919/3018 12006KT P6SM SCT080 BKN150
      TEMPO 2919/2923 VRB20G35KT -TSRA BKN070CB
     FM300100 20012KT P6SM FEW070 SCT140 BKN220
     FM300600 19008KT P6SM FEW140 SCT220
     FM301600 VRB05KT P6SM FEW070 SCT140 BKN220=

USA.gov is the U.S. government's official web portal to all federal, state and local government web resources and services.